createdAt,value
2022-12-18T00:03:02.070Z,100.00
2022-12-18T00:13:09.833Z,100.00
2022-12-18T00:23:14.112Z,100.00
2022-12-18T00:33:18.750Z,100.00
2022-12-18T00:43:20.593Z,100.00
2022-12-18T00:53:22.615Z,100.00
2022-12-18T01:03:24.657Z,100.00
2022-12-18T01:13:26.569Z,100.00
2022-12-18T01:23:29.750Z,100.00
2022-12-18T01:33:33.557Z,100.00
2022-12-18T01:43:58.761Z,100.00
2022-12-18T01:54:12.446Z,100.00
2022-12-18T02:04:37.466Z,100.00
2022-12-18T02:15:17.386Z,100.00
2022-12-18T02:25:47.690Z,100.00
2022-12-18T02:35:55.040Z,100.00
2022-12-18T02:46:01.924Z,100.00
2022-12-18T02:56:29.874Z,100.00
2022-12-18T03:06:36.430Z,100.00
2022-12-18T03:16:39.016Z,100.00
2022-12-18T03:26:47.374Z,100.00
2022-12-18T03:36:50.269Z,100.00
2022-12-18T03:47:16.471Z,100.00
2022-12-18T03:57:27.230Z,100.00
2022-12-18T04:07:32.751Z,100.00
2022-12-18T04:17:34.491Z,100.00
2022-12-18T04:27:42.508Z,100.00
2022-12-18T04:37:44.730Z,100.00
2022-12-18T04:47:51.919Z,100.00
2022-12-18T04:58:01.467Z,100.00
2022-12-18T05:08:04.340Z,100.00
2022-12-18T05:18:07.204Z,100.00
2022-12-18T05:28:20.417Z,100.00
2022-12-18T05:38:25.774Z,100.00
2022-12-18T05:48:27.530Z,100.00
2022-12-18T05:58:31.563Z,100.00
2022-12-18T06:08:35.296Z,100.00
2022-12-18T06:18:38.177Z,100.00
2022-12-18T06:28:40.152Z,100.00
2022-12-18T06:38:44.777Z,100.00
2022-12-18T06:48:51.066Z,100.00
2022-12-18T06:58:54.156Z,100.00
2022-12-18T07:08:56.187Z,100.00
2022-12-18T07:18:58.982Z,100.00
2022-12-18T07:29:02.682Z,100.00
2022-12-18T07:39:12.189Z,100.00
2022-12-18T07:49:13.996Z,100.00
2022-12-18T07:59:19.843Z,100.00
2022-12-18T08:09:22.810Z,100.00
2022-12-18T08:19:30.457Z,100.00
2022-12-18T08:29:32.963Z,100.00
2022-12-18T08:39:37.919Z,100.00
2022-12-18T08:49:41.689Z,100.00
2022-12-18T08:59:45.717Z,100.00
2022-12-18T09:09:47.852Z,97.00
2022-12-18T09:19:50.882Z,77.50
2022-12-18T09:29:53.416Z,61.66
2022-12-18T09:39:55.155Z,54.71
2022-12-18T09:50:04.054Z,48.49
2022-12-18T10:00:21.737Z,47.06
2022-12-18T10:10:37.389Z,40.71
2022-12-18T10:20:49.366Z,41.46
2022-12-18T10:30:51.362Z,37.86
2022-12-18T10:40:58.394Z,35.83
2022-12-18T10:51:10.927Z,31.84
2022-12-18T11:01:22.961Z,30.61
2022-12-18T11:11:30.997Z,31.33
2022-12-18T11:21:43.571Z,30.53
2022-12-18T11:31:47.526Z,27.69
2022-12-18T11:42:13.004Z,25.84
2022-12-18T11:52:29.220Z,29.63
2022-12-18T12:02:30.890Z,28.94
2022-12-18T12:13:10.296Z,27.36
2022-12-18T12:23:31.135Z,32.12
2022-12-18T12:33:45.146Z,42.85
2022-12-18T12:43:51.613Z,44.47
2022-12-18T12:53:58.208Z,45.99
2022-12-18T13:04:04.778Z,46.50
2022-12-18T13:14:22.833Z,43.55
2022-12-18T13:24:28.263Z,40.86
2022-12-18T13:34:32.757Z,43.72
2022-12-18T13:44:44.469Z,47.83
2022-12-18T13:54:51.434Z,53.28
2022-12-18T14:04:55.188Z,50.21
2022-12-18T14:14:57.087Z,55.28
2022-12-18T14:25:14.081Z,60.46
2022-12-18T14:35:18.926Z,67.53
2022-12-18T14:45:43.250Z,73.29
2022-12-18T14:55:50.984Z,79.98
2022-12-18T15:05:54.149Z,90.25
2022-12-18T15:16:07.424Z,97.52
2022-12-18T15:26:14.434Z,100.00
2022-12-18T15:36:26.258Z,100.00
2022-12-18T15:46:34.775Z,100.00
2022-12-18T15:56:56.959Z,100.00
2022-12-18T16:07:17.627Z,100.00
2022-12-18T16:17:30.147Z,100.00
2022-12-18T16:27:34.858Z,100.00
2022-12-18T16:37:45.792Z,100.00
2022-12-18T16:47:50.357Z,100.00
2022-12-18T16:57:53.935Z,100.00
2022-12-18T17:08:04.559Z,100.00
2022-12-18T17:18:06.652Z,100.00
2022-12-18T17:28:14.204Z,100.00
2022-12-18T17:38:18.195Z,100.00
2022-12-18T17:48:23.170Z,100.00
2022-12-18T17:58:27.651Z,100.00
2022-12-18T18:08:34.403Z,100.00
2022-12-18T18:18:37.740Z,100.00
2022-12-18T18:28:40.460Z,100.00
2022-12-18T18:38:49.298Z,100.00
2022-12-18T18:48:51.863Z,100.00
2022-12-18T18:58:57.787Z,100.00
2022-12-18T19:09:03.584Z,100.00
2022-12-18T19:19:05.806Z,100.00
2022-12-18T19:29:14.625Z,100.00
2022-12-18T19:39:20.502Z,100.00
2022-12-18T19:49:22.680Z,100.00
2022-12-18T19:59:25.424Z,100.00
2022-12-18T20:09:28.011Z,100.00
2022-12-18T20:19:35.183Z,100.00
2022-12-18T20:29:39.122Z,100.00
2022-12-18T20:39:42.029Z,100.00
2022-12-18T20:49:53.828Z,100.00
2022-12-18T20:59:57.943Z,100.00
2022-12-18T21:10:00.648Z,100.00
2022-12-18T21:20:03.344Z,100.00
2022-12-18T21:30:07.521Z,100.00
2022-12-18T21:40:10.271Z,100.00
2022-12-18T21:50:14.174Z,100.00
2022-12-18T22:00:18.363Z,100.00
2022-12-18T22:10:23.361Z,100.00
2022-12-18T22:20:26.205Z,100.00
2022-12-18T22:30:28.530Z,100.00
2022-12-18T22:40:31.286Z,100.00
2022-12-18T22:50:33.866Z,100.00
2022-12-18T23:00:36.666Z,100.00
2022-12-18T23:10:40.601Z,100.00
2022-12-18T23:20:44.381Z,100.00
2022-12-18T23:30:46.216Z,100.00
2022-12-18T23:40:47.998Z,100.00
2022-12-18T23:50:50.685Z,100.00
